sensor_id;sensor_type;location;lat;lon;timestamp;P1;durP1;ratioP1;P2;durP2;ratioP2
38637;SDS011;24401;53.034;-3.030;2023-02-13T00:00:21;13.07;;;11.67;;
38637;SDS011;24401;53.034;-3.030;2023-02-13T00:02:51;12.48;;;11.15;;
38637;SDS011;24401;53.034;-3.030;2023-02-13T00:05:21;15.63;;;12.13;;
38637;SDS011;24401;53.034;-3.030;2023-02-13T00:07:52;13.23;;;11.87;;
38637;SDS011;24401;53.034;-3.030;2023-02-13T00:10:22;12.57;;;11.47;;
38637;SDS011;24401;53.034;-3.030;2023-02-13T00:12:52;17.03;;;12.60;;
38637;SDS011;24401;53.034;-3.030;2023-02-13T00:15:23;15.63;;;12.17;;
38637;SDS011;24401;53.034;-3.030;2023-02-13T00:17:53;15.13;;;12.37;;
38637;SDS011;24401;53.034;-3.030;2023-02-13T00:20:23;15.30;;;13.77;;
38637;SDS011;24401;53.034;-3.030;2023-02-13T00:22:53;16.43;;;12.33;;
38637;SDS011;24401;53.034;-3.030;2023-02-13T00:25:24;13.70;;;12.40;;
38637;SDS011;24401;53.034;-3.030;2023-02-13T00:27:54;21.17;;;13.03;;
38637;SDS011;24401;53.034;-3.030;2023-02-13T00:30:24;21.85;;;13.60;;
38637;SDS011;24401;53.034;-3.030;2023-02-13T00:32:55;14.70;;;12.97;;
38637;SDS011;24401;53.034;-3.030;2023-02-13T00:35:25;13.37;;;12.10;;
38637;SDS011;24401;53.034;-3.030;2023-02-13T00:37:55;17.70;;;12.80;;
38637;SDS011;24401;53.034;-3.030;2023-02-13T00:40:26;14.00;;;12.60;;
38637;SDS011;24401;53.034;-3.030;2023-02-13T00:42:56;13.87;;;12.53;;
38637;SDS011;24401;53.034;-3.030;2023-02-13T00:45:26;16.40;;;12.77;;
38637;SDS011;24401;53.034;-3.030;2023-02-13T00:47:56;17.13;;;11.87;;
38637;SDS011;24401;53.034;-3.030;2023-02-13T00:50:27;13.45;;;12.05;;
38637;SDS011;24401;53.034;-3.030;2023-02-13T00:52:57;14.10;;;11.97;;
38637;SDS011;24401;53.034;-3.030;2023-02-13T00:55:27;15.40;;;12.50;;
38637;SDS011;24401;53.034;-3.030;2023-02-13T00:57:57;14.47;;;12.10;;
38637;SDS011;24401;53.034;-3.030;2023-02-13T01:00:27;14.23;;;11.87;;
38637;SDS011;24401;53.034;-3.030;2023-02-13T01:02:58;13.93;;;12.57;;
38637;SDS011;24401;53.034;-3.030;2023-02-13T01:05:28;12.07;;;10.97;;
38637;SDS011;24401;53.034;-3.030;2023-02-13T01:07:58;13.83;;;11.30;;
38637;SDS011;24401;53.034;-3.030;2023-02-13T01:10:29;20.00;;;13.53;;
38637;SDS011;24401;53.034;-3.030;2023-02-13T01:12:59;19.83;;;12.90;;
38637;SDS011;24401;53.034;-3.030;2023-02-13T01:15:29;13.87;;;11.17;;
38637;SDS011;24401;53.034;-3.030;2023-02-13T01:18:00;21.23;;;14.13;;
38637;SDS011;24401;53.034;-3.030;2023-02-13T01:20:30;14.20;;;12.70;;
38637;SDS011;24401;53.034;-3.030;2023-02-13T01:23:00;13.17;;;11.47;;
38637;SDS011;24401;53.034;-3.030;2023-02-13T01:25:30;12.73;;;11.63;;
38637;SDS011;24401;53.034;-3.030;2023-02-13T01:28:00;12.17;;;10.97;;
38637;SDS011;24401;53.034;-3.030;2023-02-13T01:30:31;16.00;;;11.37;;
38637;SDS011;24401;53.034;-3.030;2023-02-13T01:33:01;11.13;;;10.13;;
38637;SDS011;24401;53.034;-3.030;2023-02-13T01:35:31;14.63;;;10.90;;
38637;SDS011;24401;53.034;-3.030;2023-02-13T01:38:01;13.60;;;11.75;;
38637;SDS011;24401;53.034;-3.030;2023-02-13T01:40:31;16.48;;;10.70;;
38637;SDS011;24401;53.034;-3.030;2023-02-13T01:43:02;14.17;;;10.90;;
38637;SDS011;24401;53.034;-3.030;2023-02-13T01:45:32;12.23;;;11.10;;
38637;SDS011;24401;53.034;-3.030;2023-02-13T01:48:03;14.43;;;11.83;;
38637;SDS011;24401;53.034;-3.030;2023-02-13T01:53:07;15.27;;;11.10;;
38637;SDS011;24401;53.034;-3.030;2023-02-13T01:55:43;11.88;;;10.95;;
38637;SDS011;24401;53.034;-3.030;2023-02-13T01:58:15;11.30;;;10.27;;
38637;SDS011;24401;53.034;-3.030;2023-02-13T02:00:47;14.07;;;12.50;;
38637;SDS011;24401;53.034;-3.030;2023-02-13T02:03:31;16.42;;;11.90;;
38637;SDS011;24401;53.034;-3.030;2023-02-13T02:06:02;13.07;;;11.52;;
38637;SDS011;24401;53.034;-3.030;2023-02-13T02:08:33;15.70;;;10.60;;
38637;SDS011;24401;53.034;-3.030;2023-02-13T02:11:10;11.57;;;10.38;;
38637;SDS011;24401;53.034;-3.030;2023-02-13T02:13:41;11.73;;;10.73;;
38637;SDS011;24401;53.034;-3.030;2023-02-13T02:16:12;11.77;;;10.60;;
38637;SDS011;24401;53.034;-3.030;2023-02-13T02:18:42;11.57;;;10.23;;
38637;SDS011;24401;53.034;-3.030;2023-02-13T02:26:53;10.82;;;9.82;;
38637;SDS011;24401;53.034;-3.030;2023-02-13T02:30:07;23.47;;;12.33;;
38637;SDS011;24401;53.034;-3.030;2023-02-13T02:35:26;10.43;;;9.32;;
38637;SDS011;24401;53.034;-3.030;2023-02-13T02:40:45;10.70;;;9.68;;
38637;SDS011;24401;53.034;-3.030;2023-02-13T02:43:32;9.55;;;8.70;;
38637;SDS011;24401;53.034;-3.030;2023-02-13T02:48:49;9.77;;;8.85;;
38637;SDS011;24401;53.034;-3.030;2023-02-13T02:51:47;9.32;;;8.20;;
38637;SDS011;24401;53.034;-3.030;2023-02-13T02:54:29;9.45;;;8.55;;
38637;SDS011;24401;53.034;-3.030;2023-02-13T02:57:24;9.43;;;8.35;;
38637;SDS011;24401;53.034;-3.030;2023-02-13T02:59:56;9.82;;;8.82;;
38637;SDS011;24401;53.034;-3.030;2023-02-13T03:02:45;9.38;;;8.57;;
38637;SDS011;24401;53.034;-3.030;2023-02-13T03:05:43;9.68;;;8.55;;
38637;SDS011;24401;53.034;-3.030;2023-02-13T03:08:33;10.68;;;9.00;;
38637;SDS011;24401;53.034;-3.030;2023-02-13T03:11:22;9.73;;;8.93;;
38637;SDS011;24401;53.034;-3.030;2023-02-13T03:14:12;8.90;;;8.02;;
38637;SDS011;24401;53.034;-3.030;2023-02-13T03:16:44;10.32;;;8.38;;
38637;SDS011;24401;53.034;-3.030;2023-02-13T03:19:37;9.23;;;8.38;;
38637;SDS011;24401;53.034;-3.030;2023-02-13T03:30:39;8.98;;;8.07;;
38637;SDS011;24401;53.034;-3.030;2023-02-13T03:33:30;10.23;;;7.70;;
38637;SDS011;24401;53.034;-3.030;2023-02-13T03:41:36;8.93;;;7.83;;
38637;SDS011;24401;53.034;-3.030;2023-02-13T03:46:57;7.55;;;6.90;;
38637;SDS011;24401;53.034;-3.030;2023-02-13T03:49:29;8.60;;;7.85;;
38637;SDS011;24401;53.034;-3.030;2023-02-13T03:52:26;8.75;;;7.65;;
38637;SDS011;24401;53.034;-3.030;2023-02-13T03:54:58;7.60;;;7.00;;
38637;SDS011;24401;53.034;-3.030;2023-02-13T03:57:47;8.38;;;7.60;;
38637;SDS011;24401;53.034;-3.030;2023-02-13T04:00:39;8.27;;;7.57;;
38637;SDS011;24401;53.034;-3.030;2023-02-13T04:03:14;8.05;;;7.35;;
38637;SDS011;24401;53.034;-3.030;2023-02-13T04:05:47;7.68;;;6.97;;
38637;SDS011;24401;53.034;-3.030;2023-02-13T04:08:18;8.68;;;7.78;;
38637;SDS011;24401;53.034;-3.030;2023-02-13T04:10:52;7.97;;;7.27;;
38637;SDS011;24401;53.034;-3.030;2023-02-13T04:13:34;7.85;;;7.25;;
38637;SDS011;24401;53.034;-3.030;2023-02-13T04:16:07;8.25;;;7.55;;
38637;SDS011;24401;53.034;-3.030;2023-02-13T04:18:39;7.88;;;7.07;;
38637;SDS011;24401;53.034;-3.030;2023-02-13T04:21:10;8.70;;;7.70;;
38637;SDS011;24401;53.034;-3.030;2023-02-13T04:23:40;9.83;;;7.27;;
38637;SDS011;24401;53.034;-3.030;2023-02-13T04:26:12;15.18;;;7.80;;
38637;SDS011;24401;53.034;-3.030;2023-02-13T04:28:45;11.43;;;7.32;;
38637;SDS011;24401;53.034;-3.030;2023-02-13T04:31:15;9.17;;;8.40;;
38637;SDS011;24401;53.034;-3.030;2023-02-13T04:33:45;9.53;;;8.47;;
38637;SDS011;24401;53.034;-3.030;2023-02-13T04:36:16;9.27;;;8.10;;
38637;SDS011;24401;53.034;-3.030;2023-02-13T04:38:46;9.83;;;7.93;;
38637;SDS011;24401;53.034;-3.030;2023-02-13T04:41:16;9.45;;;8.07;;
38637;SDS011;24401;53.034;-3.030;2023-02-13T04:43:46;9.03;;;8.30;;
38637;SDS011;24401;53.034;-3.030;2023-02-13T04:46:17;9.48;;;8.65;;
38637;SDS011;24401;53.034;-3.030;2023-02-13T04:48:47;9.30;;;8.50;;
38637;SDS011;24401;53.034;-3.030;2023-02-13T04:51:17;9.77;;;8.97;;
38637;SDS011;24401;53.034;-3.030;2023-02-13T04:53:47;9.80;;;8.97;;
38637;SDS011;24401;53.034;-3.030;2023-02-13T04:56:18;10.43;;;9.43;;
38637;SDS011;24401;53.034;-3.030;2023-02-13T04:58:48;9.13;;;8.43;;
38637;SDS011;24401;53.034;-3.030;2023-02-13T05:01:18;20.60;;;8.70;;
38637;SDS011;24401;53.034;-3.030;2023-02-13T05:03:48;9.33;;;8.43;;
38637;SDS011;24401;53.034;-3.030;2023-02-13T05:06:19;9.03;;;8.10;;
38637;SDS011;24401;53.034;-3.030;2023-02-13T05:08:49;9.20;;;8.50;;
38637;SDS011;24401;53.034;-3.030;2023-02-13T05:11:19;9.13;;;7.73;;
38637;SDS011;24401;53.034;-3.030;2023-02-13T05:13:49;9.57;;;8.77;;
38637;SDS011;24401;53.034;-3.030;2023-02-13T05:16:20;11.50;;;10.50;;
38637;SDS011;24401;53.034;-3.030;2023-02-13T05:18:50;9.87;;;9.03;;
38637;SDS011;24401;53.034;-3.030;2023-02-13T05:21:23;12.15;;;10.70;;
38637;SDS011;24401;53.034;-3.030;2023-02-13T05:24:12;11.73;;;9.68;;
38637;SDS011;24401;53.034;-3.030;2023-02-13T05:26:43;12.00;;;10.90;;
38637;SDS011;24401;53.034;-3.030;2023-02-13T05:29:14;11.57;;;10.47;;
38637;SDS011;24401;53.034;-3.030;2023-02-13T05:31:52;9.93;;;9.13;;
38637;SDS011;24401;53.034;-3.030;2023-02-13T05:34:23;11.25;;;10.07;;
38637;SDS011;24401;53.034;-3.030;2023-02-13T05:36:54;12.15;;;10.07;;
38637;SDS011;24401;53.034;-3.030;2023-02-13T05:39:24;12.95;;;9.80;;
38637;SDS011;24401;53.034;-3.030;2023-02-13T05:41:55;10.93;;;9.93;;
38637;SDS011;24401;53.034;-3.030;2023-02-13T05:44:25;11.47;;;10.37;;
38637;SDS011;24401;53.034;-3.030;2023-02-13T05:46:55;10.80;;;9.80;;
38637;SDS011;24401;53.034;-3.030;2023-02-13T05:49:26;11.27;;;10.23;;
38637;SDS011;24401;53.034;-3.030;2023-02-13T05:51:56;11.27;;;10.23;;
38637;SDS011;24401;53.034;-3.030;2023-02-13T05:54:26;14.60;;;11.33;;
38637;SDS011;24401;53.034;-3.030;2023-02-13T05:56:57;11.77;;;10.80;;
38637;SDS011;24401;53.034;-3.030;2023-02-13T05:59:27;11.53;;;10.33;;
38637;SDS011;24401;53.034;-3.030;2023-02-13T06:01:57;12.48;;;11.25;;
38637;SDS011;24401;53.034;-3.030;2023-02-13T06:04:27;9.73;;;8.43;;
38637;SDS011;24401;53.034;-3.030;2023-02-13T06:06:58;12.33;;;10.80;;
38637;SDS011;24401;53.034;-3.030;2023-02-13T06:09:28;10.48;;;9.55;;
38637;SDS011;24401;53.034;-3.030;2023-02-13T06:11:58;12.10;;;10.83;;
38637;SDS011;24401;53.034;-3.030;2023-02-13T06:14:29;11.07;;;10.07;;
38637;SDS011;24401;53.034;-3.030;2023-02-13T06:16:59;11.20;;;10.20;;
38637;SDS011;24401;53.034;-3.030;2023-02-13T06:19:30;10.97;;;10.07;;
38637;SDS011;24401;53.034;-3.030;2023-02-13T06:22:00;11.67;;;10.70;;
38637;SDS011;24401;53.034;-3.030;2023-02-13T06:24:30;10.63;;;9.63;;
38637;SDS011;24401;53.034;-3.030;2023-02-13T06:27:00;10.93;;;9.93;;
38637;SDS011;24401;53.034;-3.030;2023-02-13T06:29:30;10.47;;;9.47;;
38637;SDS011;24401;53.034;-3.030;2023-02-13T06:32:01;11.00;;;10.10;;
38637;SDS011;24401;53.034;-3.030;2023-02-13T06:34:32;11.03;;;9.70;;
38637;SDS011;24401;53.034;-3.030;2023-02-13T06:37:02;11.23;;;10.13;;
38637;SDS011;24401;53.034;-3.030;2023-02-13T06:39:32;13.38;;;9.80;;
38637;SDS011;24401;53.034;-3.030;2023-02-13T06:42:02;11.30;;;10.35;;
38637;SDS011;24401;53.034;-3.030;2023-02-13T06:44:33;10.53;;;9.63;;
38637;SDS011;24401;53.034;-3.030;2023-02-13T06:47:03;14.50;;;9.67;;
38637;SDS011;24401;53.034;-3.030;2023-02-13T06:49:33;12.13;;;10.93;;
38637;SDS011;24401;53.034;-3.030;2023-02-13T06:52:03;10.80;;;9.90;;
38637;SDS011;24401;53.034;-3.030;2023-02-13T06:54:34;10.80;;;9.40;;
38637;SDS011;24401;53.034;-3.030;2023-02-13T06:57:04;9.37;;;8.57;;
38637;SDS011;24401;53.034;-3.030;2023-02-13T06:59:34;10.83;;;9.93;;
38637;SDS011;24401;53.034;-3.030;2023-02-13T07:02:04;11.37;;;10.27;;
38637;SDS011;24401;53.034;-3.030;2023-02-13T07:04:35;11.90;;;10.10;;
38637;SDS011;24401;53.034;-3.030;2023-02-13T07:07:05;11.43;;;10.33;;
38637;SDS011;24401;53.034;-3.030;2023-02-13T07:09:35;11.43;;;10.40;;
38637;SDS011;24401;53.034;-3.030;2023-02-13T07:12:06;10.60;;;9.50;;
38637;SDS011;24401;53.034;-3.030;2023-02-13T07:14:36;11.60;;;10.37;;
38637;SDS011;24401;53.034;-3.030;2023-02-13T07:17:06;11.03;;;10.07;;
38637;SDS011;24401;53.034;-3.030;2023-02-13T07:19:36;10.50;;;9.30;;
38637;SDS011;24401;53.034;-3.030;2023-02-13T07:22:07;10.87;;;9.87;;
38637;SDS011;24401;53.034;-3.030;2023-02-13T07:24:37;10.43;;;9.53;;
38637;SDS011;24401;53.034;-3.030;2023-02-13T07:27:07;10.97;;;9.93;;
38637;SDS011;24401;53.034;-3.030;2023-02-13T07:29:37;10.40;;;9.30;;
38637;SDS011;24401;53.034;-3.030;2023-02-13T07:32:08;10.13;;;9.33;;
38637;SDS011;24401;53.034;-3.030;2023-02-13T07:34:38;9.67;;;8.87;;
38637;SDS011;24401;53.034;-3.030;2023-02-13T07:37:08;9.87;;;8.87;;
38637;SDS011;24401;53.034;-3.030;2023-02-13T07:39:40;10.20;;;9.30;;
38637;SDS011;24401;53.034;-3.030;2023-02-13T07:42:10;9.83;;;8.83;;
38637;SDS011;24401;53.034;-3.030;2023-02-13T07:44:40;11.13;;;10.13;;
38637;SDS011;24401;53.034;-3.030;2023-02-13T07:47:10;10.57;;;9.57;;
38637;SDS011;24401;53.034;-3.030;2023-02-13T07:49:41;9.30;;;8.40;;
38637;SDS011;24401;53.034;-3.030;2023-02-13T07:52:12;10.32;;;9.40;;
38637;SDS011;24401;53.034;-3.030;2023-02-13T07:54:42;8.77;;;7.97;;
38637;SDS011;24401;53.034;-3.030;2023-02-13T07:57:16;10.13;;;8.05;;
38637;SDS011;24401;53.034;-3.030;2023-02-13T07:59:46;8.97;;;8.13;;
38637;SDS011;24401;53.034;-3.030;2023-02-13T08:02:16;10.70;;;9.67;;
38637;SDS011;24401;53.034;-3.030;2023-02-13T08:04:47;10.15;;;9.35;;
38637;SDS011;24401;53.034;-3.030;2023-02-13T08:07:17;10.37;;;9.20;;
38637;SDS011;24401;53.034;-3.030;2023-02-13T08:09:47;10.27;;;8.33;;
38637;SDS011;24401;53.034;-3.030;2023-02-13T08:12:36;16.77;;;8.43;;
38637;SDS011;24401;53.034;-3.030;2023-02-13T08:15:08;10.27;;;9.17;;
38637;SDS011;24401;53.034;-3.030;2023-02-13T08:17:39;9.52;;;8.50;;
38637;SDS011;24401;53.034;-3.030;2023-02-13T08:20:10;9.03;;;8.17;;
38637;SDS011;24401;53.034;-3.030;2023-02-13T08:22:40;9.50;;;8.63;;
38637;SDS011;24401;53.034;-3.030;2023-02-13T08:25:11;9.33;;;8.50;;
38637;SDS011;24401;53.034;-3.030;2023-02-13T08:27:41;8.33;;;7.70;;
38637;SDS011;24401;53.034;-3.030;2023-02-13T08:30:12;9.57;;;8.70;;
38637;SDS011;24401;53.034;-3.030;2023-02-13T08:32:44;10.68;;;9.35;;
38637;SDS011;24401;53.034;-3.030;2023-02-13T08:35:14;9.93;;;8.03;;
38637;SDS011;24401;53.034;-3.030;2023-02-13T08:37:44;11.00;;;8.73;;
38637;SDS011;24401;53.034;-3.030;2023-02-13T08:40:14;10.60;;;8.27;;
38637;SDS011;24401;53.034;-3.030;2023-02-13T08:42:45;9.43;;;8.63;;
38637;SDS011;24401;53.034;-3.030;2023-02-13T08:45:15;8.20;;;7.60;;
38637;SDS011;24401;53.034;-3.030;2023-02-13T08:47:45;8.73;;;7.90;;
38637;SDS011;24401;53.034;-3.030;2023-02-13T08:50:15;9.43;;;8.63;;
38637;SDS011;24401;53.034;-3.030;2023-02-13T08:52:46;9.53;;;8.63;;
38637;SDS011;24401;53.034;-3.030;2023-02-13T08:55:16;8.53;;;7.83;;
38637;SDS011;24401;53.034;-3.030;2023-02-13T08:57:46;10.43;;;8.27;;
38637;SDS011;24401;53.034;-3.030;2023-02-13T09:00:16;10.53;;;8.00;;
38637;SDS011;24401;53.034;-3.030;2023-02-13T09:02:47;8.57;;;7.83;;
38637;SDS011;24401;53.034;-3.030;2023-02-13T09:05:17;9.57;;;8.67;;
38637;SDS011;24401;53.034;-3.030;2023-02-13T09:07:47;8.00;;;7.27;;
38637;SDS011;24401;53.034;-3.030;2023-02-13T09:10:18;8.07;;;7.37;;
38637;SDS011;24401;53.034;-3.030;2023-02-13T09:12:51;8.23;;;7.53;;
38637;SDS011;24401;53.034;-3.030;2023-02-13T09:15:22;8.20;;;7.40;;
38637;SDS011;24401;53.034;-3.030;2023-02-13T09:17:52;7.60;;;6.90;;
38637;SDS011;24401;53.034;-3.030;2023-02-13T09:20:22;8.93;;;8.03;;
38637;SDS011;24401;53.034;-3.030;2023-02-13T09:22:53;9.37;;;8.30;;
38637;SDS011;24401;53.034;-3.030;2023-02-13T09:25:24;8.17;;;7.37;;
38637;SDS011;24401;53.034;-3.030;2023-02-13T09:27:54;8.30;;;7.60;;
38637;SDS011;24401;53.034;-3.030;2023-02-13T09:30:24;8.30;;;7.57;;
38637;SDS011;24401;53.034;-3.030;2023-02-13T09:32:54;8.10;;;7.10;;
38637;SDS011;24401;53.034;-3.030;2023-02-13T09:35:24;8.47;;;7.17;;
38637;SDS011;24401;53.034;-3.030;2023-02-13T09:37:55;8.77;;;7.87;;
38637;SDS011;24401;53.034;-3.030;2023-02-13T09:40:29;9.23;;;7.90;;
38637;SDS011;24401;53.034;-3.030;2023-02-13T09:44:04;10.05;;;7.40;;
38637;SDS011;24401;53.034;-3.030;2023-02-13T09:46:04;7.43;;;6.82;;
38637;SDS011;24401;53.034;-3.030;2023-02-13T09:48:37;7.28;;;6.60;;
38637;SDS011;24401;53.034;-3.030;2023-02-13T09:51:09;8.80;;;8.00;;
38637;SDS011;24401;53.034;-3.030;2023-02-13T09:53:45;9.32;;;7.53;;
38637;SDS011;24401;53.034;-3.030;2023-02-13T09:56:19;10.18;;;7.55;;
38637;SDS011;24401;53.034;-3.030;2023-02-13T09:58:56;8.00;;;7.30;;
38637;SDS011;24401;53.034;-3.030;2023-02-13T10:01:32;7.47;;;6.78;;
38637;SDS011;24401;53.034;-3.030;2023-02-13T10:04:11;7.28;;;6.68;;
38637;SDS011;24401;53.034;-3.030;2023-02-13T10:06:44;8.43;;;6.88;;
38637;SDS011;24401;53.034;-3.030;2023-02-13T10:09:20;7.50;;;6.80;;
38637;SDS011;24401;53.034;-3.030;2023-02-13T10:17:03;9.00;;;7.63;;
38637;SDS011;24401;53.034;-3.030;2023-02-13T10:19:45;6.28;;;5.78;;
38637;SDS011;24401;53.034;-3.030;2023-02-13T10:22:19;7.88;;;7.18;;
38637;SDS011;24401;53.034;-3.030;2023-02-13T10:24:51;7.72;;;7.00;;
38637;SDS011;24401;53.034;-3.030;2023-02-13T10:27:24;7.78;;;7.07;;
38637;SDS011;24401;53.034;-3.030;2023-02-13T10:29:56;7.90;;;6.70;;
38637;SDS011;24401;53.034;-3.030;2023-02-13T10:35:40;9.55;;;7.05;;
38637;SDS011;24401;53.034;-3.030;2023-02-13T10:38:13;8.15;;;7.35;;
38637;SDS011;24401;53.034;-3.030;2023-02-13T10:43:38;9.00;;;6.93;;
38637;SDS011;24401;53.034;-3.030;2023-02-13T10:46:28;7.40;;;6.70;;
38637;SDS011;24401;53.034;-3.030;2023-02-13T10:49:09;8.20;;;6.82;;
38637;SDS011;24401;53.034;-3.030;2023-02-13T10:51:43;8.30;;;7.50;;
38637;SDS011;24401;53.034;-3.030;2023-02-13T10:57:30;7.82;;;7.03;;
38637;SDS011;24401;53.034;-3.030;2023-02-13T10:59:54;8.15;;;7.35;;
38637;SDS011;24401;53.034;-3.030;2023-02-13T11:02:28;7.50;;;6.80;;
38637;SDS011;24401;53.034;-3.030;2023-02-13T11:07:29;7.13;;;6.30;;
38637;SDS011;24401;53.034;-3.030;2023-02-13T11:10:02;8.07;;;7.37;;
38637;SDS011;24401;53.034;-3.030;2023-02-13T11:12:33;8.13;;;7.43;;
38637;SDS011;24401;53.034;-3.030;2023-02-13T11:15:04;7.50;;;6.80;;
38637;SDS011;24401;53.034;-3.030;2023-02-13T11:17:36;7.75;;;6.63;;
38637;SDS011;24401;53.034;-3.030;2023-02-13T11:20:30;7.15;;;6.50;;
38637;SDS011;24401;53.034;-3.030;2023-02-13T11:25:54;7.85;;;7.05;;
38637;SDS011;24401;53.034;-3.030;2023-02-13T11:28:26;7.07;;;6.45;;
38637;SDS011;24401;53.034;-3.030;2023-02-13T11:33:46;6.70;;;6.15;;
38637;SDS011;24401;53.034;-3.030;2023-02-13T11:36:27;8.33;;;6.43;;
38637;SDS011;24401;53.034;-3.030;2023-02-13T11:39:02;10.70;;;8.20;;
38637;SDS011;24401;53.034;-3.030;2023-02-13T11:41:40;11.02;;;7.00;;
38637;SDS011;24401;53.034;-3.030;2023-02-13T11:46:54;10.38;;;7.55;;
38637;SDS011;24401;53.034;-3.030;2023-02-13T11:49:28;9.18;;;7.57;;
38637;SDS011;24401;53.034;-3.030;2023-02-13T11:51:59;7.93;;;7.18;;
38637;SDS011;24401;53.034;-3.030;2023-02-13T11:54:31;7.35;;;6.65;;
38637;SDS011;24401;53.034;-3.030;2023-02-13T11:59:51;7.72;;;7.10;;
38637;SDS011;24401;53.034;-3.030;2023-02-13T12:05:15;8.15;;;7.35;;
38637;SDS011;24401;53.034;-3.030;2023-02-13T12:07:45;7.47;;;6.78;;
38637;SDS011;24401;53.034;-3.030;2023-02-13T12:15:29;8.00;;;7.30;;
38637;SDS011;24401;53.034;-3.030;2023-02-13T12:18:05;7.53;;;6.85;;
38637;SDS011;24401;53.034;-3.030;2023-02-13T12:20:52;7.70;;;7.10;;
38637;SDS011;24401;53.034;-3.030;2023-02-13T12:25:59;8.77;;;7.30;;
38637;SDS011;24401;53.034;-3.030;2023-02-13T12:55:01;7.70;;;7.00;;
38637;SDS011;24401;53.034;-3.030;2023-02-13T13:05:53;7.90;;;7.20;;
38637;SDS011;24401;53.034;-3.030;2023-02-13T13:18:54;8.90;;;7.57;;
38637;SDS011;24401;53.034;-3.030;2023-02-13T13:21:33;10.98;;;7.45;;
38637;SDS011;24401;53.034;-3.030;2023-02-13T13:24:20;8.65;;;7.85;;
38637;SDS011;24401;53.034;-3.030;2023-02-13T13:26:52;8.25;;;7.55;;
38637;SDS011;24401;53.034;-3.030;2023-02-13T13:29:28;7.32;;;6.63;;
38637;SDS011;24401;53.034;-3.030;2023-02-13T13:32:02;7.75;;;7.05;;
38637;SDS011;24401;53.034;-3.030;2023-02-13T13:34:34;7.85;;;7.05;;
38637;SDS011;24401;53.034;-3.030;2023-02-13T13:37:10;8.10;;;7.13;;
38637;SDS011;24401;53.034;-3.030;2023-02-13T13:42:15;7.67;;;6.97;;
38637;SDS011;24401;53.034;-3.030;2023-02-13T13:47:44;8.07;;;7.30;;
38637;SDS011;24401;53.034;-3.030;2023-02-13T13:53:06;8.40;;;7.65;;
38637;SDS011;24401;53.034;-3.030;2023-02-13T13:58:20;7.60;;;7.00;;
38637;SDS011;24401;53.034;-3.030;2023-02-13T14:03:40;8.80;;;7.78;;
38637;SDS011;24401;53.034;-3.030;2023-02-13T14:06:23;8.77;;;7.90;;
38637;SDS011;24401;53.034;-3.030;2023-02-13T14:14:00;7.95;;;7.35;;
38637;SDS011;24401;53.034;-3.030;2023-02-13T14:16:43;8.70;;;7.90;;
38637;SDS011;24401;53.034;-3.030;2023-02-13T14:24:51;6.90;;;6.20;;
38637;SDS011;24401;53.034;-3.030;2023-02-13T14:27:23;9.30;;;7.68;;
38637;SDS011;24401;53.034;-3.030;2023-02-13T14:29:54;8.27;;;7.45;;
38637;SDS011;24401;53.034;-3.030;2023-02-13T14:32:27;7.77;;;7.07;;
38637;SDS011;24401;53.034;-3.030;2023-02-13T14:35:01;9.15;;;7.55;;
38637;SDS011;24401;53.034;-3.030;2023-02-13T14:37:36;8.90;;;7.32;;
38637;SDS011;24401;53.034;-3.030;2023-02-13T14:42:53;9.40;;;8.50;;
38637;SDS011;24401;53.034;-3.030;2023-02-13T14:45:30;8.43;;;7.63;;
38637;SDS011;24401;53.034;-3.030;2023-02-13T14:48:04;12.07;;;8.27;;
38637;SDS011;24401;53.034;-3.030;2023-02-13T14:53:25;9.52;;;7.72;;
38637;SDS011;24401;53.034;-3.030;2023-02-13T14:55:57;9.43;;;8.02;;
38637;SDS011;24401;53.034;-3.030;2023-02-13T14:58:29;9.73;;;8.77;;
38637;SDS011;24401;53.034;-3.030;2023-02-13T15:01:02;10.15;;;9.15;;
38637;SDS011;24401;53.034;-3.030;2023-02-13T15:06:24;13.10;;;9.30;;
38637;SDS011;24401;53.034;-3.030;2023-02-13T15:08:56;9.73;;;8.93;;
38637;SDS011;24401;53.034;-3.030;2023-02-13T15:11:41;10.23;;;9.35;;
38637;SDS011;24401;53.034;-3.030;2023-02-13T15:14:19;9.90;;;9.00;;
38637;SDS011;24401;53.034;-3.030;2023-02-13T15:19:36;9.23;;;8.32;;
38637;SDS011;24401;53.034;-3.030;2023-02-13T15:22:14;12.60;;;9.38;;
38637;SDS011;24401;53.034;-3.030;2023-02-13T15:24:47;10.15;;;9.15;;
38637;SDS011;24401;53.034;-3.030;2023-02-13T15:27:19;10.75;;;9.73;;
38637;SDS011;24401;53.034;-3.030;2023-02-13T15:32:28;10.03;;;9.07;;
38637;SDS011;24401;53.034;-3.030;2023-02-13T15:34:59;10.80;;;9.20;;
38637;SDS011;24401;53.034;-3.030;2023-02-13T15:37:29;10.40;;;9.40;;
38637;SDS011;24401;53.034;-3.030;2023-02-13T15:40:13;12.03;;;9.83;;
38637;SDS011;24401;53.034;-3.030;2023-02-13T15:42:44;9.68;;;8.82;;
38637;SDS011;24401;53.034;-3.030;2023-02-13T15:45:15;10.05;;;9.15;;
38637;SDS011;24401;53.034;-3.030;2023-02-13T15:47:46;11.35;;;10.35;;
38637;SDS011;24401;53.034;-3.030;2023-02-13T15:52:47;13.00;;;9.47;;
38637;SDS011;24401;53.034;-3.030;2023-02-13T15:55:20;9.73;;;8.90;;
38637;SDS011;24401;53.034;-3.030;2023-02-13T15:57:52;10.30;;;9.30;;
38637;SDS011;24401;53.034;-3.030;2023-02-13T16:00:24;10.93;;;9.98;;
38637;SDS011;24401;53.034;-3.030;2023-02-13T16:02:55;10.50;;;9.43;;
38637;SDS011;24401;53.034;-3.030;2023-02-13T16:05:26;16.73;;;9.68;;
38637;SDS011;24401;53.034;-3.030;2023-02-13T16:07:58;10.60;;;9.50;;
38637;SDS011;24401;53.034;-3.030;2023-02-13T16:10:29;13.50;;;9.75;;
38637;SDS011;24401;53.034;-3.030;2023-02-13T16:13:03;15.68;;;9.80;;
38637;SDS011;24401;53.034;-3.030;2023-02-13T16:15:34;11.18;;;9.20;;
38637;SDS011;24401;53.034;-3.030;2023-02-13T16:18:05;10.60;;;9.60;;
38637;SDS011;24401;53.034;-3.030;2023-02-13T16:20:46;11.57;;;10.40;;
38637;SDS011;24401;53.034;-3.030;2023-02-13T16:23:22;14.23;;;10.60;;
38637;SDS011;24401;53.034;-3.030;2023-02-13T16:25:52;11.80;;;10.63;;
38637;SDS011;24401;53.034;-3.030;2023-02-13T16:28:29;14.00;;;11.05;;
38637;SDS011;24401;53.034;-3.030;2023-02-13T16:33:32;15.98;;;10.85;;
38637;SDS011;24401;53.034;-3.030;2023-02-13T16:38:40;13.05;;;11.65;;
38637;SDS011;24401;53.034;-3.030;2023-02-13T16:43:57;20.30;;;11.07;;
38637;SDS011;24401;53.034;-3.030;2023-02-13T16:46:32;13.73;;;12.32;;
38637;SDS011;24401;53.034;-3.030;2023-02-13T16:51:38;14.57;;;12.13;;
38637;SDS011;24401;53.034;-3.030;2023-02-13T16:56:41;17.83;;;12.53;;
38637;SDS011;24401;53.034;-3.030;2023-02-13T17:01:42;15.98;;;12.93;;
38637;SDS011;24401;53.034;-3.030;2023-02-13T17:04:20;18.47;;;13.40;;
38637;SDS011;24401;53.034;-3.030;2023-02-13T17:06:54;20.38;;;13.35;;
38637;SDS011;24401;53.034;-3.030;2023-02-13T17:09:28;16.95;;;13.40;;
38637;SDS011;24401;53.034;-3.030;2023-02-13T17:11:58;17.08;;;13.15;;
38637;SDS011;24401;53.034;-3.030;2023-02-13T17:14:29;18.37;;;13.23;;
38637;SDS011;24401;53.034;-3.030;2023-02-13T17:16:59;16.73;;;13.63;;
38637;SDS011;24401;53.034;-3.030;2023-02-13T17:19:29;21.53;;;14.17;;
38637;SDS011;24401;53.034;-3.030;2023-02-13T17:21:59;16.30;;;13.83;;
38637;SDS011;24401;53.034;-3.030;2023-02-13T17:24:30;16.73;;;14.57;;
38637;SDS011;24401;53.034;-3.030;2023-02-13T17:27:00;26.93;;;13.63;;
38637;SDS011;24401;53.034;-3.030;2023-02-13T17:29:30;26.10;;;14.90;;
38637;SDS011;24401;53.034;-3.030;2023-02-13T17:32:01;20.60;;;15.20;;
38637;SDS011;24401;53.034;-3.030;2023-02-13T17:34:31;25.03;;;14.97;;
38637;SDS011;24401;53.034;-3.030;2023-02-13T17:37:01;18.27;;;14.73;;
38637;SDS011;24401;53.034;-3.030;2023-02-13T17:39:31;20.17;;;15.07;;
38637;SDS011;24401;53.034;-3.030;2023-02-13T17:42:02;16.73;;;14.40;;
38637;SDS011;24401;53.034;-3.030;2023-02-13T17:44:32;16.93;;;15.10;;
38637;SDS011;24401;53.034;-3.030;2023-02-13T17:47:02;16.70;;;14.90;;
38637;SDS011;24401;53.034;-3.030;2023-02-13T17:49:32;27.67;;;16.53;;